Time;durP1;ratioP1;P1;durP2;ratioP2;P2;SDS_P1;SDS_P2;PMS_P1;PMS_P2;Temp;Humidity;BMP_temperature;BMP_pressure;BME280_temperature;BME280_humidity;BME280_pressure;Samples;Min_cycle;Max_cycle;Signal;HPM_P1;HPM_P2
2023/06/18 00:00:11;;;;;;;14.37;9.43;;;19.50;56.60;;;;;;5048136;28;20177;-73
2023/06/18 00:02:36;;;;;;;13.87;7.97;;;19.50;56.20;;;;;;5046892;28;20208;-72
2023/06/18 00:05:02;;;;;;;14.80;9.27;;;19.40;55.70;;;;;;5042359;28;20949;-74
2023/06/18 00:07:27;;;;;;;16.97;10.77;;;19.40;55.80;;;;;;5047846;28;20311;-74
2023/06/18 00:09:53;;;;;;;15.17;10.00;;;19.50;55.80;;;;;;5046922;28;20710;-75
2023/06/18 00:12:18;;;;;;;15.90;8.60;;;19.40;55.80;;;;;;5048093;28;20389;-74
2023/06/18 00:14:44;;;;;;;11.97;8.40;;;19.40;55.80;;;;;;5041090;28;20189;-72
2023/06/18 00:17:10;;;;;;;16.77;9.73;;;19.40;55.80;;;;;;5044889;28;20208;-72
2023/06/18 00:19:36;;;;;;;15.43;8.97;;;19.50;55.80;;;;;;5044823;28;20269;-73
2023/06/18 00:22:01;;;;;;;14.43;9.20;;;19.50;55.80;;;;;;5045488;28;20198;-73
2023/06/18 00:24:28;;;;;;;16.00;9.33;;;19.50;56.10;;;;;;5043562;28;20208;-73
2023/06/18 00:26:53;;;;;;;17.13;10.17;;;19.50;56.00;;;;;;5033457;28;20438;-72
2023/06/18 00:29:20;;;;;;;13.57;8.93;;;19.50;56.00;;;;;;5045328;28;20192;-73
2023/06/18 00:31:45;;;;;;;14.50;9.30;;;19.50;56.00;;;;;;5046194;28;20231;-72
2023/06/18 00:34:14;;;;;;;13.67;9.60;;;19.50;55.80;;;;;;5053580;28;20463;-74
2023/06/18 00:36:43;;;;;;;14.00;9.27;;;19.50;55.70;;;;;;5044110;28;20269;-74
2023/06/18 00:39:09;;;;;;;15.00;9.73;;;19.50;55.70;;;;;;5044564;28;20424;-72
2023/06/18 00:41:35;;;;;;;13.23;9.80;;;19.50;55.40;;;;;;5044071;28;20426;-72
2023/06/18 00:44:01;;;;;;;15.17;9.90;;;19.50;55.70;;;;;;5045275;28;20545;-73
2023/06/18 00:46:30;;;;;;;13.43;9.53;;;19.40;56.00;;;;;;5042979;28;20205;-73
2023/06/18 00:48:57;;;;;;;14.10;9.70;;;19.30;56.10;;;;;;5029407;28;20189;-72
2023/06/18 00:51:28;;;;;;;13.83;9.87;;;19.20;56.10;;;;;;5042950;28;20491;-74
2023/06/18 00:53:56;;;;;;;14.70;9.87;;;19.20;56.40;;;;;;5050011;28;21008;-73
2023/06/18 00:56:25;;;;;;;12.03;9.20;;;19.10;56.50;;;;;;5036741;28;20431;-72
2023/06/18 00:58:51;;;;;;;13.77;9.40;;;19.10;56.80;;;;;;5047309;28;20442;-72
2023/06/18 01:01:16;;;;;;;13.63;8.57;;;19.10;56.00;;;;;;5039081;28;20416;-72
2023/06/18 01:03:47;;;;;;;14.57;9.10;;;19.10;56.00;;;;;;5049648;28;20828;-70
2023/06/18 01:06:17;;;;;;;13.83;9.37;;;19.10;55.80;;;;;;5041520;28;20525;-72
2023/06/18 01:08:48;;;;;;;12.83;9.13;;;19.10;56.10;;;;;;5031174;28;20941;-73
2023/06/18 01:11:18;;;;;;;13.20;8.63;;;19.10;56.00;;;;;;5042846;28;20420;-72
2023/06/18 01:13:44;;;;;;;14.60;9.90;;;19.10;55.70;;;;;;5044063;28;20512;-72
2023/06/18 01:16:11;;;;;;;12.70;8.87;;;19.00;57.40;;;;;;5042135;28;20446;-72
2023/06/18 01:18:45;;;;;;;13.50;9.57;;;19.00;57.70;;;;;;5045871;28;20873;-72
2023/06/18 01:21:13;;;;;;;12.73;8.27;;;18.90;57.80;;;;;;5050721;28;20422;-71
2023/06/18 01:23:57;;;;;;;13.90;9.30;;;18.90;58.10;;;;;;5041056;28;20463;-72
2023/06/18 01:26:26;;;;;;;14.93;9.00;;;18.80;58.10;;;;;;5043566;28;20403;-71
2023/06/18 01:28:53;;;;;;;14.70;8.70;;;18.80;58.40;;;;;;5042141;28;20410;-74
2023/06/18 01:31:22;;;;;;;11.80;7.73;;;18.80;58.10;;;;;;5044063;28;20465;-71
2023/06/18 01:33:51;;;;;;;11.30;8.70;;;18.70;58.10;;;;;;5042758;28;20516;-72
2023/06/18 01:36:34;;;;;;;14.10;8.00;;;18.70;58.10;;;;;;5050968;28;20410;-73
2023/06/18 01:39:07;;;;;;;10.73;8.27;;;18.50;57.80;;;;;;5053793;28;20426;-71
2023/06/18 01:41:36;;;;;;;10.07;7.43;;;18.50;58.10;;;;;;5056776;28;20469;-72
2023/06/18 01:44:06;;;;;;;11.27;8.27;;;18.50;58.10;;;;;;5066148;28;20467;-72
2023/06/18 01:46:31;;;;;;;15.93;10.17;;;18.50;58.10;;;;;;5047854;28;20450;-73
2023/06/18 01:49:01;;;;;;;18.67;10.97;;;18.50;59.50;;;;;;5044013;28;20421;-74
2023/06/18 01:51:30;;;;;;;14.90;10.40;;;18.50;59.90;;;;;;5044374;28;20246;-71
2023/06/18 01:53:57;;;;;;;15.33;8.80;;;18.50;59.20;;;;;;5043794;28;20465;-73
2023/06/18 01:56:23;;;;;;;12.47;9.50;;;18.40;59.30;;;;;;5022023;28;20945;-70
2023/06/18 01:58:50;;;;;;;13.50;8.73;;;18.40;59.60;;;;;;5040660;28;20424;-70
2023/06/18 02:01:17;;;;;;;12.43;9.03;;;18.30;59.50;;;;;;5041561;28;20434;-72
2023/06/18 02:03:42;;;;;;;12.83;8.77;;;18.30;59.20;;;;;;5048713;28;20527;-71
2023/06/18 02:06:08;;;;;;;16.30;9.90;;;18.30;59.30;;;;;;5040414;28;20459;-70
2023/06/18 02:08:34;;;;;;;15.37;10.87;;;18.30;59.60;;;;;;5045717;28;20515;-73
2023/06/18 02:11:02;;;;;;;15.00;9.83;;;18.20;60.40;;;;;;5042637;28;20201;-72
2023/06/18 02:13:27;;;;;;;17.30;10.60;;;18.20;61.00;;;;;;5042617;28;20915;-71
2023/06/18 02:15:53;;;;;;;14.80;9.20;;;18.00;61.20;;;;;;5039863;28;20521;-73
2023/06/18 02:18:19;;;;;;;16.00;9.63;;;18.00;61.60;;;;;;5042351;28;20178;-72
2023/06/18 02:20:44;;;;;;;21.40;10.20;;;18.00;61.50;;;;;;5042029;28;20188;-73
2023/06/18 02:23:10;;;;;;;15.50;10.43;;;17.90;61.50;;;;;;5046677;28;20209;-71
2023/06/18 02:25:36;;;;;;;15.13;10.83;;;17.80;61.60;;;;;;5032372;28;20277;-71
2023/06/18 02:28:05;;;;;;;16.17;9.77;;;17.70;61.60;;;;;;5047488;28;20255;-72
2023/06/18 02:30:30;;;;;;;14.30;9.97;;;17.70;61.70;;;;;;5035587;28;20263;-72
2023/06/18 02:33:01;;;;;;;13.37;8.87;;;17.60;62.20;;;;;;5045580;28;20916;-72
2023/06/18 02:35:27;;;;;;;14.63;8.80;;;17.60;62.30;;;;;;5042310;28;20184;-73
2023/06/18 02:37:54;;;;;;;14.37;9.23;;;17.60;62.00;;;;;;5042849;28;20929;-71
2023/06/18 02:40:20;;;;;;;17.40;10.20;;;17.60;62.00;;;;;;5022816;28;20431;-73
2023/06/18 02:42:48;;;;;;;13.37;8.83;;;17.60;62.20;;;;;;5044561;28;20482;-72
2023/06/18 02:45:17;;;;;;;13.27;9.73;;;17.60;62.00;;;;;;5039316;28;20451;-74
2023/06/18 02:47:46;;;;;;;16.73;9.40;;;17.60;62.20;;;;;;5043252;28;20432;-72
2023/06/18 02:50:12;;;;;;;14.30;8.93;;;17.60;62.20;;;;;;5044635;28;20421;-74
2023/06/18 02:52:42;;;;;;;12.93;8.60;;;17.70;62.00;;;;;;5043406;28;20558;-73
2023/06/18 02:55:09;;;;;;;15.70;9.80;;;17.70;61.60;;;;;;5047292;28;21088;-73
2023/06/18 02:57:35;;;;;;;15.90;10.00;;;17.70;61.70;;;;;;5040253;28;20423;-72
2023/06/18 03:00:04;;;;;;;13.80;10.70;;;17.70;61.70;;;;;;5047805;28;20467;-73
2023/06/18 03:02:31;;;;;;;13.50;9.40;;;17.70;61.70;;;;;;5035520;28;20517;-73
2023/06/18 03:04:56;;;;;;;15.10;9.67;;;17.60;62.00;;;;;;5048017;28;20813;-73
2023/06/18 03:07:22;;;;;;;14.00;9.60;;;17.50;62.20;;;;;;5040299;28;20461;-73
2023/06/18 03:09:47;;;;;;;17.23;11.13;;;17.50;62.50;;;;;;5045948;28;20643;-72
2023/06/18 03:12:13;;;;;;;17.07;10.43;;;17.50;62.30;;;;;;5041728;28;20599;-73
2023/06/18 03:14:39;;;;;;;19.10;10.40;;;17.40;62.50;;;;;;5043009;28;20208;-71
2023/06/18 03:17:04;;;;;;;18.67;9.33;;;17.40;62.80;;;;;;5034948;28;20180;-72
2023/06/18 03:19:30;;;;;;;13.33;10.10;;;17.40;62.30;;;;;;5045200;28;20659;-74
2023/06/18 03:21:55;;;;;;;21.37;10.17;;;17.40;62.50;;;;;;5042807;28;20704;-72
2023/06/18 03:24:21;;;;;;;15.73;10.87;;;17.50;62.30;;;;;;5044520;28;20584;-72
2023/06/18 03:26:46;;;;;;;14.37;9.73;;;17.50;62.30;;;;;;5040755;28;20549;-73
2023/06/18 03:29:12;;;;;;;16.80;10.63;;;17.50;62.50;;;;;;5034416;28;20540;-72
2023/06/18 03:31:39;;;;;;;14.13;10.30;;;17.30;62.90;;;;;;5040838;28;20271;-71
2023/06/18 03:34:07;;;;;;;18.63;10.20;;;17.30;63.10;;;;;;5047963;28;20208;-71
2023/06/18 03:36:43;;;;;;;14.67;9.83;;;17.20;63.20;;;;;;5025759;28;20554;-72
2023/06/18 03:39:09;;;;;;;16.83;9.80;;;17.30;63.40;;;;;;5039549;28;20467;-74
2023/06/18 03:41:35;;;;;;;15.30;10.17;;;17.20;63.50;;;;;;5044617;28;20426;-74
2023/06/18 03:44:02;;;;;;;18.63;10.70;;;17.20;63.50;;;;;;5041129;28;20460;-73
2023/06/18 03:46:28;;;;;;;15.83;10.50;;;17.20;63.80;;;;;;5045587;28;20439;-72
2023/06/18 03:48:55;;;;;;;18.70;11.50;;;17.10;63.90;;;;;;5040564;28;21567;-72
2023/06/18 03:51:20;;;;;;;16.63;10.63;;;17.10;63.90;;;;;;5021872;28;20473;-73
2023/06/18 03:53:46;;;;;;;17.60;10.33;;;17.10;64.10;;;;;;5040663;28;20890;-73
2023/06/18 03:56:12;;;;;;;14.00;9.30;;;17.10;63.90;;;;;;5040930;28;20173;-71
2023/06/18 03:58:37;;;;;;;14.27;9.70;;;17.20;63.90;;;;;;5044601;28;20210;-71
2023/06/18 04:01:03;;;;;;;16.97;10.83;;;17.20;63.70;;;;;;5053358;28;20172;-72
2023/06/18 04:03:29;;;;;;;16.80;11.17;;;17.20;63.50;;;;;;5051461;28;20212;-71
2023/06/18 04:05:55;;;;;;;15.00;9.57;;;17.20;63.80;;;;;;5052832;28;20237;-70
2023/06/18 04:08:20;;;;;;;15.50;10.30;;;17.20;63.70;;;;;;5044673;28;20450;-72
2023/06/18 04:10:47;;;;;;;17.60;11.73;;;17.30;63.50;;;;;;5052236;28;20191;-71
2023/06/18 04:13:19;;;;;;;12.80;8.83;;;17.30;63.50;;;;;;5049786;28;20216;-72
2023/06/18 04:15:45;;;;;;;16.13;9.73;;;17.30;63.50;;;;;;5046798;28;20423;-70
2023/06/18 04:18:11;;;;;;;15.60;10.27;;;17.30;63.70;;;;;;5053557;28;20407;-71
2023/06/18 04:20:36;;;;;;;19.00;10.20;;;17.40;63.70;;;;;;5051370;28;20422;-72
2023/06/18 04:23:02;;;;;;;17.47;11.10;;;17.40;63.40;;;;;;5048664;28;20208;-72
2023/06/18 04:25:28;;;;;;;16.47;10.10;;;17.40;63.50;;;;;;5050571;28;20564;-71
2023/06/18 04:27:55;;;;;;;16.53;10.20;;;17.40;63.70;;;;;;5026715;28;20189;-71
2023/06/18 04:30:20;;;;;;;13.60;10.07;;;17.50;63.10;;;;;;5046398;28;20184;-71
2023/06/18 04:32:46;;;;;;;13.20;9.90;;;17.50;63.20;;;;;;5052338;28;20477;-72
2023/06/18 04:35:11;;;;;;;14.90;10.40;;;17.60;63.10;;;;;;5037211;28;20184;-72
2023/06/18 04:37:37;;;;;;;15.03;10.23;;;17.70;62.80;;;;;;5054416;28;20190;-71
2023/06/18 04:40:06;;;;;;;14.73;10.33;;;17.80;62.80;;;;;;5033624;28;20185;-73
2023/06/18 04:42:32;;;;;;;15.57;9.93;;;17.90;62.30;;;;;;5045402;28;20696;-71
2023/06/18 04:44:57;;;;;;;14.10;9.80;;;17.90;62.20;;;;;;5032056;28;20448;-72
2023/06/18 04:47:23;;;;;;;18.90;10.73;;;18.00;62.00;;;;;;5053407;28;20714;-72
2023/06/18 04:49:50;;;;;;;18.27;10.83;;;18.10;61.90;;;;;;5051661;28;20177;-72
2023/06/18 04:52:16;;;;;;;17.30;10.60;;;18.20;61.70;;;;;;5051689;28;20578;-71
2023/06/18 04:54:42;;;;;;;17.27;9.40;;;18.40;61.60;;;;;;5052487;28;20457;-71
2023/06/18 04:57:09;;;;;;;14.50;8.77;;;18.50;61.00;;;;;;5052806;28;20422;-71
2023/06/18 04:59:36;;;;;;;14.00;8.93;;;18.50;61.00;;;;;;5053185;28;20511;-71
2023/06/18 05:02:03;;;;;;;16.83;10.60;;;18.60;60.30;;;;;;5055995;28;20818;-71
2023/06/18 05:04:29;;;;;;;11.97;9.07;;;18.60;60.40;;;;;;5047734;28;20457;-71
2023/06/18 05:06:54;;;;;;;13.17;9.37;;;18.60;60.10;;;;;;5056989;28;20428;-71
2023/06/18 05:09:20;;;;;;;16.70;10.13;;;18.70;60.00;;;;;;5048460;28;20192;-71
2023/06/18 05:11:45;;;;;;;13.77;9.50;;;18.60;60.10;;;;;;5049335;28;20218;-72
2023/06/18 05:14:11;;;;;;;16.80;10.37;;;18.50;60.90;;;;;;5034034;28;20202;-73
2023/06/18 05:16:36;;;;;;;14.60;9.43;;;18.40;61.60;;;;;;5047684;28;20180;-70
2023/06/18 05:19:03;;;;;;;14.40;9.57;;;18.40;61.60;;;;;;5046408;28;20203;-71
2023/06/18 05:21:28;;;;;;;16.00;10.60;;;18.60;61.60;;;;;;5050112;28;20206;-70
2023/06/18 05:23:54;;;;;;;15.77;10.10;;;18.70;60.90;;;;;;5047913;28;20462;-70
2023/06/18 05:26:21;;;;;;;15.70;10.80;;;18.70;61.00;;;;;;5046674;28;20195;-72
2023/06/18 05:28:47;;;;;;;18.13;10.83;;;18.60;61.90;;;;;;5050086;28;20237;-72
2023/06/18 05:31:12;;;;;;;17.67;10.93;;;18.80;62.50;;;;;;5050691;28;20799;-71
2023/06/18 05:33:38;;;;;;;20.20;11.57;;;18.90;63.10;;;;;;5040681;28;20467;-72
2023/06/18 05:36:03;;;;;;;18.50;11.70;;;18.80;63.70;;;;;;5052752;28;20563;-71
2023/06/18 05:38:29;;;;;;;17.13;11.60;;;18.90;64.10;;;;;;5053098;28;20560;-72
2023/06/18 05:40:55;;;;;;;15.77;11.27;;;19.00;63.70;;;;;;5050692;28;20561;-71
2023/06/18 05:43:20;;;;;;;16.93;10.83;;;19.00;63.50;;;;;;5049401;28;20257;-71
2023/06/18 05:45:46;;;;;;;22.00;12.43;;;19.10;63.20;;;;;;5054734;28;20198;-71
2023/06/18 05:48:12;;;;;;;20.50;11.50;;;19.20;63.20;;;;;;5046603;28;20242;-71
2023/06/18 05:50:38;;;;;;;16.03;11.40;;;19.20;63.40;;;;;;5041785;28;20224;-71
2023/06/18 05:53:04;;;;;;;19.83;13.13;;;19.20;63.20;;;;;;5054497;28;20476;-70
2023/06/18 05:55:29;;;;;;;16.07;10.40;;;19.00;63.70;;;;;;5052529;28;20628;-71
2023/06/18 05:57:55;;;;;;;16.47;10.70;;;19.20;63.80;;;;;;5033667;28;20192;-72
2023/06/18 06:00:20;;;;;;;19.50;11.50;;;19.40;63.40;;;;;;5025309;28;20181;-70
2023/06/18 06:02:46;;;;;;;15.73;10.83;;;19.40;62.90;;;;;;5049526;28;20211;-72
2023/06/18 06:05:11;;;;;;;17.63;11.83;;;19.50;62.90;;;;;;5051919;28;20185;-70
2023/06/18 06:07:37;;;;;;;16.53;11.80;;;19.60;62.60;;;;;;5051270;28;20216;-70
2023/06/18 06:10:03;;;;;;;16.53;10.70;;;19.80;62.30;;;;;;5051434;28;20178;-71
2023/06/18 06:12:29;;;;;;;15.83;11.30;;;19.90;61.70;;;;;;5037783;28;20301;-72
2023/06/18 06:14:55;;;;;;;15.47;10.50;;;20.00;61.50;;;;;;5036897;28;20464;-71
2023/06/18 06:17:20;;;;;;;19.50;11.90;;;20.00;61.50;;;;;;5059095;28;20428;-71
2023/06/18 06:19:46;;;;;;;18.63;13.23;;;19.90;61.90;;;;;;5056188;28;20239;-71
2023/06/18 06:22:11;;;;;;;15.80;11.97;;;19.60;63.20;;;;;;5050916;28;20180;-71
2023/06/18 06:24:37;;;;;;;16.20;11.70;;;19.50;63.80;;;;;;5047701;28;20219;-70
2023/06/18 06:27:03;;;;;;;15.60;11.37;;;19.50;64.20;;;;;;5049546;28;20189;-70
2023/06/18 06:29:28;;;;;;;21.67;12.57;;;19.60;64.20;;;;;;5045430;28;20211;-72
2023/06/18 06:31:54;;;;;;;22.70;13.70;;;19.60;64.20;;;;;;5055927;28;20542;-72
2023/06/18 06:34:21;;;;;;;17.80;12.60;;;19.70;64.10;;;;;;5051480;28;20209;-73
2023/06/18 06:36:46;;;;;;;16.23;11.80;;;19.70;64.10;;;;;;5053072;28;20188;-72
2023/06/18 06:39:13;;;;;;;17.60;11.67;;;19.70;64.10;;;;;;5058284;28;20412;-73
2023/06/18 06:41:38;;;;;;;20.17;13.77;;;19.80;64.10;;;;;;5056160;28;20184;-71
2023/06/18 06:44:04;;;;;;;16.67;12.03;;;19.80;63.90;;;;;;5058462;28;21039;-72
2023/06/18 06:46:30;;;;;;;18.10;11.77;;;19.90;63.90;;;;;;5055015;28;20669;-71
2023/06/18 06:48:55;;;;;;;21.73;12.53;;;20.10;63.50;;;;;;5054606;28;20265;-71
2023/06/18 06:51:21;;;;;;;15.93;11.90;;;20.20;63.20;;;;;;5059031;28;20181;-73
2023/06/18 06:53:46;;;;;;;20.40;11.73;;;20.30;62.90;;;;;;5052688;28;20206;-72
2023/06/18 06:56:12;;;;;;;14.87;11.53;;;20.50;62.80;;;;;;5058157;28;20205;-72
2023/06/18 06:58:37;;;;;;;19.13;12.80;;;20.60;62.00;;;;;;5058139;28;20247;-72
2023/06/18 07:01:03;;;;;;;18.03;13.00;;;20.70;61.50;;;;;;5051676;28;20205;-72
2023/06/18 07:03:28;;;;;;;15.83;12.20;;;20.80;61.50;;;;;;5055199;28;20218;-72
2023/06/18 07:05:54;;;;;;;17.83;12.73;;;20.90;61.20;;;;;;5054925;28;20198;-73
2023/06/18 07:08:20;;;;;;;17.87;12.03;;;21.00;60.40;;;;;;5060245;28;20211;-72
2023/06/18 07:10:45;;;;;;;20.53;12.77;;;21.10;59.90;;;;;;5054294;28;20192;-72
2023/06/18 07:13:12;;;;;;;16.30;11.30;;;21.10;59.90;;;;;;5055269;28;20219;-71
2023/06/18 07:15:38;;;;;;;15.80;12.00;;;21.20;59.50;;;;;;5061408;28;20278;-72
2023/06/18 07:18:03;;;;;;;21.50;11.87;;;21.30;59.20;;;;;;5064428;28;20471;-72
2023/06/18 07:20:29;;;;;;;20.20;12.37;;;21.30;59.10;;;;;;5070588;28;20222;-73
2023/06/18 07:22:55;;;;;;;18.70;12.30;;;21.50;58.70;;;;;;5062985;28;20243;-72
2023/06/18 07:25:20;;;;;;;17.43;12.50;;;21.50;58.20;;;;;;5061206;28;20553;-71
2023/06/18 07:27:46;;;;;;;17.13;12.27;;;21.50;58.20;;;;;;5064837;28;20543;-70
2023/06/18 07:30:12;;;;;;;17.13;12.80;;;21.60;58.10;;;;;;5043551;28;20265;-72
2023/06/18 07:32:38;;;;;;;16.20;12.07;;;21.70;58.00;;;;;;5056882;28;20211;-72
2023/06/18 07:35:04;;;;;;;23.50;13.30;;;21.90;57.80;;;;;;5059020;28;21130;-71
2023/06/18 07:37:29;;;;;;;15.87;11.40;;;21.90;57.70;;;;;;5055272;28;20193;-70
2023/06/18 07:39:55;;;;;;;19.30;12.30;;;22.00;57.60;;;;;;5057675;28;20926;-73
2023/06/18 07:42:20;;;;;;;13.43;9.90;;;22.10;57.60;;;;;;5051536;28;20219;-75
2023/06/18 07:44:46;;;;;;;16.47;11.57;;;22.20;57.30;;;;;;5029501;28;20212;-74
2023/06/18 07:47:12;;;;;;;19.43;11.60;;;22.30;57.20;;;;;;5048770;28;20190;-73
2023/06/18 07:49:37;;;;;;;15.50;11.70;;;22.50;56.40;;;;;;5046597;28;20218;-72
2023/06/18 07:52:03;;;;;;;15.60;10.97;;;22.50;56.60;;;;;;5053067;28;20214;-74
2023/06/18 07:54:29;;;;;;;17.50;11.87;;;22.80;56.40;;;;;;5036154;28;20237;-73
2023/06/18 07:56:54;;;;;;;18.37;12.10;;;22.90;55.70;;;;;;5053435;28;20427;-77
2023/06/18 07:59:20;;;;;;;19.03;12.60;;;22.90;55.70;;;;;;5048205;28;20219;-73
2023/06/18 08:01:46;;;;;;;18.03;12.13;;;23.00;55.40;;;;;;5050177;28;20216;-72
2023/06/18 08:04:12;;;;;;;16.60;11.60;;;23.10;55.00;;;;;;5047593;28;20292;-74
2023/06/18 08:06:37;;;;;;;21.63;12.37;;;23.10;54.80;;;;;;5036401;28;20198;-74
2023/06/18 08:09:03;;;;;;;15.13;11.40;;;23.30;55.00;;;;;;5048458;28;20193;-72
2023/06/18 08:11:29;;;;;;;17.50;11.80;;;23.40;54.60;;;;;;5047530;28;20221;-74
2023/06/18 08:13:55;;;;;;;20.37;11.47;;;23.60;54.10;;;;;;5043677;28;20206;-71
2023/06/18 08:16:22;;;;;;;16.80;11.90;;;23.80;53.30;;;;;;5046868;28;20758;-74
2023/06/18 08:18:48;;;;;;;16.33;10.27;;;23.90;53.00;;;;;;5045869;28;20223;-74
2023/06/18 08:21:13;;;;;;;17.33;11.50;;;24.10;53.00;;;;;;5044606;28;20444;-73
2023/06/18 08:23:39;;;;;;;18.23;12.30;;;24.20;52.00;;;;;;5044412;28;20980;-75
2023/06/18 08:26:04;;;;;;;18.67;12.33;;;24.30;51.70;;;;;;5041884;28;20328;-74
2023/06/18 08:28:30;;;;;;;16.33;12.27;;;24.30;52.20;;;;;;5043526;28;20194;-72
2023/06/18 08:30:55;;;;;;;13.43;10.27;;;24.40;51.60;;;;;;5049226;28;20275;-74
2023/06/18 08:33:21;;;;;;;15.23;11.30;;;24.50;50.70;;;;;;5048066;28;20300;-69
2023/06/18 08:35:47;;;;;;;15.67;11.10;;;24.60;50.90;;;;;;5041989;28;20223;-74
2023/06/18 08:38:12;;;;;;;15.40;11.80;;;24.70;50.30;;;;;;5032789;28;20188;-74
2023/06/18 08:40:51;;;;;;;12.20;9.90;;;24.80;49.10;;;;;;5046040;28;20196;-76
2023/06/18 08:43:21;;;;;;;16.37;10.50;;;24.80;48.70;;;;;;5044813;28;20212;-75
2023/06/18 08:45:50;;;;;;;13.60;10.10;;;24.90;48.60;;;;;;5050471;28;20446;-75
2023/06/18 08:48:17;;;;;;;17.10;8.90;;;25.10;45.70;;;;;;5045483;28;20425;-73
2023/06/18 08:50:43;;;;;;;13.60;8.90;;;25.30;43.40;;;;;;5031278;28;20430;-71
2023/06/18 08:53:16;;;;;;;10.37;8.00;;;25.50;43.50;;;;;;5032718;28;20488;-74
2023/06/18 08:55:44;;;;;;;11.40;8.17;;;25.70;40.70;;;;;;5044805;28;20507;-74
2023/06/18 08:58:18;;;;;;;10.40;7.60;;;25.90;41.00;;;;;;5026479;28;20503;-74
2023/06/18 09:00:44;;;;;;;12.20;8.40;;;26.10;39.00;;;;;;5050303;28;20430;-75
2023/06/18 09:03:11;;;;;;;11.10;8.10;;;26.30;39.50;;;;;;5050399;28;20471;-73
2023/06/18 09:05:38;;;;;;;11.17;8.40;;;26.30;40.00;;;;;;5049797;28;20521;-74
2023/06/18 09:08:04;;;;;;;12.20;9.13;;;26.40;38.00;;;;;;5034012;28;20440;-73
2023/06/18 09:10:30;;;;;;;11.90;8.63;;;26.40;37.00;;;;;;5050777;28;20428;-73
2023/06/18 09:12:56;;;;;;;13.63;8.03;;;26.50;37.10;;;;;;5043401;28;20224;-71
2023/06/18 09:15:24;;;;;;;12.53;8.10;;;26.60;37.60;;;;;;5043637;28;20414;-73
2023/06/18 09:17:53;;;;;;;11.30;7.53;;;26.90;35.20;;;;;;5025408;28;20509;-73
2023/06/18 09:20:20;;;;;;;11.90;8.30;;;26.80;35.10;;;;;;5044289;28;20425;-72
2023/06/18 09:22:47;;;;;;;9.90;7.20;;;26.90;34.50;;;;;;5043967;28;20461;-75
2023/06/18 09:25:22;;;;;;;12.20;8.20;;;26.90;33.60;;;;;;5045862;28;20515;-73
2023/06/18 09:27:48;;;;;;;10.93;8.30;;;27.00;33.20;;;;;;5039278;28;20439;-74
2023/06/18 09:30:23;;;;;;;9.67;7.70;;;27.10;32.50;;;;;;5048702;28;20435;-73
2023/06/18 09:32:49;;;;;;;9.97;8.03;;;27.10;32.30;;;;;;5043880;28;20523;-71
2023/06/18 09:35:18;;;;;;;10.33;7.83;;;27.10;32.90;;;;;;5047594;28;20431;-71
2023/06/18 09:37:45;;;;;;;11.17;8.23;;;27.20;32.10;;;;;;5041472;28;20813;-72
2023/06/18 09:40:18;;;;;;;12.27;8.70;;;27.20;32.70;;;;;;5032450;28;20514;-74
2023/06/18 09:42:45;;;;;;;12.33;8.63;;;27.20;32.80;;;;;;5042773;28;20520;-73
2023/06/18 09:45:12;;;;;;;10.30;7.50;;;27.40;32.50;;;;;;5025254;28;20462;-72
2023/06/18 09:47:43;;;;;;;12.40;7.67;;;27.40;32.50;;;;;;5024856;28;20431;-74
2023/06/18 09:50:11;;;;;;;10.40;8.00;;;27.40;32.40;;;;;;5043865;28;20430;-73
2023/06/18 09:52:48;;;;;;;11.20;7.97;;;27.30;33.20;;;;;;5048844;28;20821;-74
2023/06/18 09:55:33;;;;;;;14.43;7.87;;;27.20;33.30;;;;;;5040781;28;20426;-73
2023/06/18 09:57:59;;;;;;;10.10;7.90;;;27.00;33.70;;;;;;5045930;28;20424;-73
2023/06/18 10:00:26;;;;;;;15.77;8.83;;;27.30;33.90;;;;;;5040921;28;20416;-73
2023/06/18 10:02:52;;;;;;;11.70;8.30;;;27.50;33.20;;;;;;5031415;28;20502;-74
2023/06/18 10:05:18;;;;;;;13.90;8.73;;;27.60;33.50;;;;;;5044614;28;20471;-73
2023/06/18 10:07:47;;;;;;;14.30;8.30;;;27.60;32.90;;;;;;5047138;28;20431;-72
2023/06/18 10:10:13;;;;;;;9.00;7.40;;;27.80;33.10;;;;;;5040395;28;20189;-72
2023/06/18 10:12:42;;;;;;;12.40;7.93;;;28.00;33.10;;;;;;5045320;28;20475;-72
2023/06/18 10:15:12;;;;;;;11.50;8.87;;;28.30;31.90;;;;;;5045390;28;20416;-73
2023/06/18 10:17:51;;;;;;;11.50;8.03;;;28.50;31.30;;;;;;5049932;28;20490;-71
2023/06/18 10:20:18;;;;;;;9.83;7.67;;;28.50;30.10;;;;;;5032257;28;20430;-72
2023/06/18 10:22:49;;;;;;;10.73;7.50;;;28.30;30.80;;;;;;5047041;28;20474;-70
2023/06/18 10:25:15;;;;;;;11.10;7.93;;;28.50;30.90;;;;;;5056019;28;20426;-71
2023/06/18 10:27:42;;;;;;;11.73;7.63;;;29.10;30.50;;;;;;5055819;28;20430;-70
2023/06/18 10:30:08;;;;;;;12.90;8.27;;;29.50;29.60;;;;;;5050219;28;20427;-71
2023/06/18 10:32:36;;;;;;;10.33;7.70;;;29.50;29.10;;;;;;5042286;28;20463;-72
2023/06/18 10:35:13;;;;;;;11.87;8.43;;;29.20;29.70;;;;;;5049049;28;20423;-72
2023/06/18 10:37:41;;;;;;;9.80;7.43;;;29.40;29.50;;;;;;5041598;28;20451;-72
2023/06/18 10:40:09;;;;;;;11.13;8.13;;;29.60;28.80;;;;;;5051350;28;20419;-71
2023/06/18 10:42:34;;;;;;;10.87;7.40;;;29.40;29.10;;;;;;5040675;28;20919;-71
2023/06/18 10:45:14;;;;;;;8.90;6.97;;;29.80;28.80;;;;;;5049106;28;20431;-73
2023/06/18 10:47:41;;;;;;;12.63;7.83;;;30.40;28.60;;;;;;5046244;28;20195;-72
2023/06/18 10:50:06;;;;;;;16.43;7.43;;;30.70;27.70;;;;;;5047624;28;20479;-74
2023/06/18 10:52:42;;;;;;;10.67;7.03;;;30.80;27.60;;;;;;5038471;28;20526;-71
2023/06/18 10:55:20;;;;;;;10.47;8.63;;;30.80;27.60;;;;;;5044112;28;20188;-71
2023/06/18 10:57:50;;;;;;;12.70;7.70;;;31.20;27.20;;;;;;5039701;28;20430;-71
2023/06/18 11:00:19;;;;;;;9.77;7.13;;;31.50;27.10;;;;;;5045465;28;20412;-75
2023/06/18 11:02:46;;;;;;;11.57;7.30;;;31.60;27.10;;;;;;5040499;28;20471;-72
2023/06/18 11:05:35;;;;;;;12.40;7.40;;;31.10;26.80;;;;;;5042993;28;20416;-72
2023/06/18 11:08:09;;;;;;;9.90;7.33;;;30.90;27.40;;;;;;5032472;28;20529;-74
2023/06/18 11:10:37;;;;;;;11.53;7.50;;;30.80;27.20;;;;;;5036745;28;20511;-75
2023/06/18 11:13:04;;;;;;;10.83;7.43;;;30.60;28.20;;;;;;5046143;28;20475;-73
2023/06/18 11:15:30;;;;;;;10.80;7.80;;;30.70;27.90;;;;;;5036239;28;20440;-72
2023/06/18 11:18:00;;;;;;;10.90;7.30;;;30.50;28.20;;;;;;5043917;28;20416;-74
2023/06/18 11:20:29;;;;;;;8.90;7.97;;;30.90;27.80;;;;;;5050702;28;20185;-74
2023/06/18 11:22:55;;;;;;;10.30;8.03;;;30.40;27.80;;;;;;5045598;28;20536;-72
2023/06/18 11:25:22;;;;;;;9.17;7.50;;;30.40;28.20;;;;;;5044040;28;20429;-73
2023/06/18 11:27:48;;;;;;;12.60;8.00;;;30.50;28.10;;;;;;5049832;28;20446;-73
2023/06/18 11:30:17;;;;;;;10.50;8.47;;;29.30;29.40;;;;;;5038708;28;20442;-73
2023/06/18 11:32:43;;;;;;;11.07;7.43;;;29.90;29.10;;;;;;5044673;28;20466;-71
2023/06/18 11:35:10;;;;;;;10.77;7.17;;;30.60;28.40;;;;;;5043957;28;20411;-72
2023/06/18 11:37:40;;;;;;;8.93;7.17;;;31.00;27.60;;;;;;5041370;28;20443;-73
2023/06/18 11:40:07;;;;;;;11.67;7.13;;;31.30;27.40;;;;;;5032704;28;20416;-71
2023/06/18 11:42:33;;;;;;;11.47;8.07;;;31.40;27.00;;;;;;5042560;28;20424;-74
2023/06/18 11:45:02;;;;;;;10.40;7.83;;;31.60;27.00;;;;;;5045075;28;20450;-74
2023/06/18 11:47:29;;;;;;;10.33;7.57;;;31.60;26.60;;;;;;5042662;28;20941;-74
2023/06/18 11:49:54;;;;;;;8.97;7.70;;;31.30;26.70;;;;;;5046979;28;20416;-72
2023/06/18 11:52:22;;;;;;;9.63;7.60;;;31.00;26.90;;;;;;5044456;28;20513;-72
2023/06/18 11:54:49;;;;;;;9.17;7.57;;;30.30;28.00;;;;;;5046989;28;20190;-72
2023/06/18 11:57:17;;;;;;;12.17;7.50;;;30.40;27.60;;;;;;5038894;28;20416;-72
2023/06/18 11:59:45;;;;;;;11.07;6.90;;;30.10;28.00;;;;;;5046305;28;20423;-72
2023/06/18 12:02:17;;;;;;;8.17;7.00;;;30.40;27.50;;;;;;5044900;28;20792;-73
2023/06/18 12:04:44;;;;;;;8.60;7.17;;;30.60;27.70;;;;;;5044623;28;21050;-74
2023/06/18 12:07:17;;;;;;;10.50;7.93;;;31.20;27.70;;;;;;5043268;28;20415;-72
2023/06/18 12:09:44;;;;;;;8.20;6.10;;;31.90;26.40;;;;;;5045117;28;20510;-73
2023/06/18 12:12:21;;;;;;;9.00;6.27;;;32.30;26.00;;;;;;5043645;28;20512;-73
2023/06/18 12:15:17;;;;;;;10.23;6.73;;;32.70;26.10;;;;;;5050305;28;20545;-72
2023/06/18 12:17:54;;;;;;;9.17;7.13;;;33.10;25.50;;;;;;5043169;28;20434;-72
2023/06/18 12:20:24;;;;;;;10.17;7.90;;;32.70;25.40;;;;;;5043232;28;20443;-73
2023/06/18 12:22:50;;;;;;;15.23;10.00;;;32.70;25.40;;;;;;5051465;28;20470;-72
2023/06/18 12:25:17;;;;;;;10.30;7.23;;;32.30;26.40;;;;;;5041402;28;20477;-73
2023/06/18 12:27:43;;;;;;;17.37;9.43;;;32.60;26.10;;;;;;5050379;28;20429;-73
2023/06/18 12:30:14;;;;;;;13.93;10.60;;;32.90;25.70;;;;;;5042373;28;20438;-73
2023/06/18 12:32:40;;;;;;;11.30;8.00;;;33.20;25.50;;;;;;5049462;28;20870;-73